Latest Weather Observations for Low Isles

IDQ60801

Issued at 5:13 am EST Friday 20 May 2022 (issued every 10 minutes, with the page automatically refreshed every 10 minutes)

About weather observations | Map of weather stations | Latest weather observations for QLD | Other Formats
Station Details ID: 031037 Name: LOW ISLES LIGHTHOUSE Lat: -16.38 Lon: 145.56 Height: 2.9 m
Data from the previous 72 hours. | See also: Recent months at Low Isles
Date/Time
EST
Temp
°C
App
Temp
°C
Dew
Point
°C
Rel
Hum
%
Delta-T
°C
Wind Press
QNH
hPa
Press
MSL
hPa
Rain since
9am
mm
Dir  Spd
km/h
Gust
km/h
Spd
kts
Gust
kts
20/05:00am 24.9 25.2 22.2 85 1.8 SE 24 28 13 15 1013.7 1013.6 0.2
20/04:30am 24.9 24.3 22.6 87 1.5 SE 30 33 16 18 1013.6 1013.5 0.2
20/04:00am 25.2 24.4 23.1 88 1.4 SE 32 35 17 19 1013.7 1013.6 0.2
20/03:30am 24.7 23.8 22.8 89 1.3 SE 32 37 17 20 1013.8 1013.7 0.2
20/03:19am 25.7 25.5 22.8 84 2.0 SE 28 43 15 23 1013.8 1013.7 0.0
20/03:00am 25.6 26.2 22.1 81 2.3 SE 22 24 12 13 1013.9 1013.8 0.0
20/02:30am 25.5 26.4 22.0 81 2.3 SE 20 24 11 13 1014.1 1014.0 0.0
20/02:00am 25.5 26.2 21.6 79 2.6 SE 20 24 11 13 1014.4 1014.3 0.0
20/01:30am 25.5 26.4 21.6 79 2.6 SE 19 22 10 12 1014.5 1014.4 0.0
20/01:00am 25.5 25.8 22.2 82 2.2 SE 24 28 13 15 1014.9 1014.8 0.0
20/12:30am 25.4 24.9 22.1 82 2.2 SE 28 30 15 16 1015.1 1015.0 0.0
20/12:00am 25.4 24.5 22.1 82 2.2 SE 30 35 16 19 1015.3 1015.2 0.0
 
Date/Time
EST
Temp
°C
App
Temp
°C
Dew
Point
°C
Rel
Hum
%
Delta-T
°C
Wind Press
QNH
hPa
Press
MSL
hPa
Rain since
9am
mm
Dir  Spd
km/h
Gust
km/h
Spd
kts
Gust
kts
19/11:30pm 25.6 24.9 22.5 83 2.1 SE 30 35 16 19 1015.5 1015.4 0.0
19/11:00pm 25.6 24.2 22.3 82 2.2 SE 33 39 18 21 1015.7 1015.6 0.0
19/10:30pm 25.5 24.2 22.4 83 2.1 SE 33 39 18 21 1015.7 1015.6 0.0
19/10:00pm 25.4 25.1 22.5 84 1.9 SE 28 33 15 18 1015.9 1015.8 0.0
19/09:30pm 25.6 25.1 22.9 85 1.8 SE 30 35 16 19 1015.8 1015.7 0.0
19/09:00pm 25.6 24.2 22.9 85 1.8 SE 35 41 19 22 1015.8 1015.7 0.0
19/08:30pm 25.6 23.8 22.9 85 1.8 SE 37 41 20 22 1015.8 1015.7 0.0
19/08:00pm 25.7 24.1 23.2 86 1.7 SE 37 44 20 24 1015.5 1015.4 0.0
19/07:30pm 25.8 24.0 22.9 84 2.0 SE 37 43 20 23 1015.1 1015.0 0.0
19/07:00pm 25.8 23.8 22.5 82 2.2 SE 37 44 20 24 1014.7 1014.6 0.0
19/06:30pm 25.7 25.7 23.0 85 1.8 ESE 28 33 15 18 1014.4 1014.3 0.0
19/06:00pm 25.8 25.4 23.1 85 1.8 ESE 30 35 16 19 1014.0 1013.9 0.0
19/05:30pm 26.0 25.5 22.9 83 2.1 ESE 30 35 16 19 1013.7 1013.6 0.0
19/05:00pm 26.5 25.9 22.6 79 2.6 ESE 30 35 16 19 1013.6 1013.5 0.0
19/04:30pm 26.8 26.4 22.4 77 3.0 ESE 28 35 15 19 1013.3 1013.2 0.0
19/04:00pm 27.4 27.2 22.8 76 3.1 ESE 28 35 15 19 1013.1 1013.0 0.0
19/03:30pm 27.3 27.7 22.5 75 3.2 ESE 24 32 13 17 1012.9 1012.8 0.0
19/03:00pm 27.6 27.8 22.8 75 3.3 SE 26 30 14 16 1012.9 1012.8 0.0
19/02:30pm 28.0 28.1 22.5 72 3.7 ESE 26 30 14 16 1012.9 1012.8 0.0
19/02:00pm 27.8 28.0 22.7 74 3.5 SE 26 30 14 16 1013.2 1013.1 0.0
19/01:30pm 27.4 28.2 23.2 78 2.9 SE 24 28 13 15 1013.7 1013.6 0.0
19/01:00pm 27.0 27.5 22.6 77 3.0 SE 24 28 13 15 1014.3 1014.2 0.0
19/12:30pm 26.6 26.5 22.2 77 3.0 SE 26 30 14 16 1014.8 1014.7 0.0
19/12:00pm 26.7 25.9 22.3 77 3.0 SE 30 35 16 19 1015.0 1014.9 0.0
19/11:30am 26.6 25.8 22.4 78 2.8 SE 30 35 16 19 1015.5 1015.4 0.0
19/11:00am 26.4 25.4 22.0 77 2.9 SE 30 35 16 19 1016.0 1015.9 0.0
19/10:30am 26.1 25.2 22.2 79 2.6 SE 30 33 16 18 1016.3 1016.2 0.0
19/10:00am 25.9 25.2 21.8 78 2.7 SE 28 32 15 17 1016.4 1016.3 0.0
19/09:30am 25.5 25.5 21.6 79 2.6 SE 24 30 13 16 1016.5 1016.4 0.0
19/09:00am 25.6 25.6 21.7 79 2.6 SE 24 28 13 15 1016.4 1016.3 0.0
19/08:30am 25.7 25.9 22.0 80 2.5 SE 24 28 13 15 1016.0 1015.9 0.0
19/08:00am 25.7 24.8 21.4 77 2.8 SSE 28 32 15 17 1015.7 1015.6 0.0
19/07:30am 25.4 27.4 21.5 79 2.6 SSE 13 19 7 10 1015.4 1015.3 0.0
19/07:00am 25.3 27.7 21.6 80 2.5 S 11 15 6 8 1015.0 1014.9 0.0
19/06:30am 25.3 26.8 21.2 78 2.7 S 15 17 8 9 1014.8 1014.7 0.0
19/06:00am 25.2 27.0 21.1 78 2.7 S 13 17 7 9 1014.4 1014.3 0.0
19/05:30am 25.3 26.7 21.0 77 2.8 SSW 15 19 8 10 1014.1 1014.0 0.0
19/05:00am 25.3 26.6 20.8 76 3.0 S 15 17 8 9 1014.0 1013.9 0.0
19/04:30am 25.6 26.8 20.6 74 3.3 SSW 15 17 8 9 1014.0 1013.9 0.0
19/04:00am 25.4 27.1 20.9 76 3.0 S 13 17 7 9 1013.9 1013.8 0.0
19/03:30am 25.3 27.1 21.2 78 2.7 S 13 17 7 9 1014.1 1014.0 0.0
19/03:00am 25.5 27.5 21.6 79 2.6 S 13 17 7 9 1014.2 1014.1 0.0
19/02:30am 25.6 26.9 21.7 79 2.6 SSE 17 20 9 11 1014.4 1014.3 0.0
19/02:00am 25.7 26.9 21.4 77 2.8 SSE 17 20 9 11 1014.5 1014.4 0.0
19/01:30am 25.9 27.2 21.6 77 2.9 SSE 17 20 9 11 1014.7 1014.6 0.0
19/01:00am 25.8 26.8 21.0 75 3.2 SSE 17 20 9 11 1014.8 1014.7 0.0
19/12:30am 25.9 26.9 21.1 75 3.2 SSE 17 20 9 11 1015.0 1014.9 0.0
19/12:00am 26.0 26.4 21.0 74 3.3 SE 20 22 11 12 1015.3 1015.2 0.0
 
Date/Time
EST
Temp
°C
App
Temp
°C
Dew
Point
°C
Rel
Hum
%
Delta-T
°C
Wind Press
QNH
hPa
Press
MSL
hPa
Rain since
9am
mm
Dir  Spd
km/h
Gust
km/h
Spd
kts
Gust
kts
18/11:30pm 26.0 26.8 21.7 77 2.9 SE 20 24 11 13 1015.5 1015.4 0.0
18/11:00pm 26.1 26.1 21.7 77 2.9 SE 24 28 13 15 1015.7 1015.6 0.0
18/10:30pm 26.2 25.5 21.8 77 2.9 SE 28 32 15 17 1015.8 1015.7 0.0
18/10:00pm 26.2 26.4 22.7 81 2.4 ESE 26 33 14 18 1015.8 1015.7 0.0
18/09:30pm 26.2 26.1 22.3 79 2.6 ESE 26 33 14 18 1015.8 1015.7 0.0
18/09:00pm 26.0 25.6 22.3 80 2.5 ESE 28 32 15 17 1015.7 1015.6 0.0
18/08:30pm 26.0 26.6 22.1 79 2.6 ESE 22 32 12 17 1015.5 1015.4 0.0
18/08:00pm 26.2 27.1 22.7 81 2.4 ESE 22 26 12 14 1015.3 1015.2 0.0
18/07:30pm 26.1 27.5 22.8 82 2.2 ESE 20 26 11 14 1014.8 1014.7 0.0
18/07:00pm 26.0 27.7 23.1 84 2.0 ESE 19 24 10 13 1014.6 1014.5 0.0
18/06:30pm 26.0 27.7 23.1 84 2.0 ESE 19 22 10 12 1014.3 1014.2 0.0
18/06:00pm 26.1 27.7 22.8 82 2.2 ESE 19 24 10 13 1014.1 1014.0 0.0
18/05:30pm 26.4 28.3 22.7 80 2.5 ESE 17 20 9 11 1013.7 1013.6 0.0
18/05:00pm 26.7 28.5 22.5 78 2.8 ESE 17 22 9 12 1013.4 1013.3 0.0
18/04:30pm 27.1 29.0 22.7 77 3.0 ESE 17 20 9 11 1013.1 1013.0 0.0
18/04:00pm 28.0 30.2 23.2 75 3.3 ESE 17 22 9 12 1012.8 1012.7 0.0
18/03:30pm 28.5 30.6 22.5 70 4.1 E 15 19 8 10 1012.7 1012.6 0.0
18/03:00pm 28.9 31.5 22.6 69 4.3 E 13 20 7 11 1012.9 1012.8 0.0
18/02:30pm 29.3 31.9 23.3 70 4.1 E 15 22 8 12 1013.1 1013.0 0.0
18/02:00pm 28.5 31.1 22.7 71 3.9 ESE 13 17 7 9 1013.4 1013.3 0.0
18/01:30pm 28.0 30.5 22.5 72 3.7 SE 13 17 7 9 1013.9 1013.8 0.0
18/01:00pm 28.0 30.5 22.5 72 3.7 SE 13 17 7 9 1014.3 1014.2 0.0
18/12:30pm 27.9 30.4 22.4 72 3.7 SE 13 17 7 9 1014.7 1014.6 0.0
18/12:00pm 27.7 30.0 22.0 71 3.8 SE 13 15 7 8 1015.1 1015.0 0.0
18/11:30am 27.4 29.7 22.1 73 3.6 SSE 13 15 7 8 1015.5 1015.4 0.0
18/11:00am 26.8 28.4 22.2 76 3.1 SSE 17 19 9 10 1015.8 1015.7 0.0
18/10:30am 26.4 28.5 22.5 79 2.6 SSE 15 19 8 10 1016.0 1015.9 0.0
18/10:00am 26.1 28.7 22.6 81 2.4 SSE 13 15 7 8 1016.1 1016.0 0.0
18/09:30am 25.6 28.0 22.3 82 2.2 S 13 17 7 9 1016.0 1015.9 0.0
18/09:00am 25.5 27.6 22.4 83 2.1 S 15 17 8 9 1015.7 1015.6 0.0
18/08:30am 25.5 27.8 22.8 85 1.8 S 15 19 8 10 1015.3 1015.2 0.0
18/08:00am 25.4 27.7 22.7 85 1.8 S 15 17 8 9 1015.2 1015.1 0.0
18/07:30am 25.3 27.2 22.8 86 1.7 S 17 19 9 10 1015.0 1014.9 0.0
18/07:00am 25.1 27.4 22.8 87 1.6 S 15 19 8 10 1014.5 1014.4 0.0
18/06:30am 25.2 27.6 22.9 87 1.6 S 15 19 8 10 1014.1 1014.0 0.0
18/06:00am 25.4 27.2 22.5 84 1.9 SE 17 19 9 10 1013.9 1013.8 0.0
18/05:30am 25.4 28.0 22.7 85 1.8 SE 13 15 7 8 1013.6 1013.5 0.0
18/05:00am 25.3 28.0 22.8 86 1.7 SE 13 15 7 8 1013.3 1013.2 0.0
18/04:30am 25.3 28.0 22.8 86 1.7 SSE 13 17 7 9 1013.3 1013.2 0.0
18/04:00am 25.3 27.5 23.2 88 1.4 S 17 20 9 11 1013.4 1013.3 0.0
18/03:30am 25.4 28.5 23.5 89 1.3 SSW 13 17 7 9 1013.5 1013.4 0.0
18/03:00am 25.1 27.7 23.3 90 1.2 SW 15 17 8 9 1013.6 1013.5 0.0
18/02:30am 25.1 27.4 22.8 87 1.6 SW 15 17 8 9 1013.7 1013.6 0.0
18/02:00am 25.2 27.5 22.7 86 1.7 SW 15 17 8 9 1014.0 1013.9 0.0
18/01:30am 25.3 27.8 23.2 88 1.4 SW 15 19 8 10 1014.1 1014.0 0.0
18/01:00am 25.3 28.0 22.8 86 1.7 SW 13 15 7 8 1014.5 1014.4 0.0
18/12:30am 25.5 28.4 23.2 87 1.6 SSW 13 15 7 8 1014.7 1014.6 0.0
18/12:00am 25.4 28.6 23.1 87 1.6 SW 11 15 6 8 1014.9 1014.8 0.0
 
Date/Time
EST
Temp
°C
App
Temp
°C
Dew
Point
°C
Rel
Hum
%
Delta-T
°C
Wind Press
QNH
hPa
Press
MSL
hPa
Rain since
9am
mm
Dir  Spd
km/h
Gust
km/h
Spd
kts
Gust
kts
17/11:30pm 25.5 29.0 23.6 89 1.3 WSW 11 13 6 7 1015.1 1015.0 0.0
17/11:00pm 25.1 29.4 23.7 92 1.0 SSW 7 11 4 6 1015.3 1015.2 0.0
17/10:30pm 24.2 28.0 22.8 92 0.9 ESE 7 9 4 5 1015.3 1015.2 0.0
17/10:00pm 24.2 27.7 22.8 92 0.9 ESE 9 11 5 6 1015.4 1015.3 0.0
17/09:30pm 24.4 27.9 22.8 91 1.1 E 9 11 5 6 1015.5 1015.4 0.0
17/09:00pm 24.6 28.0 22.7 89 1.3 ESE 9 13 5 7 1015.3 1015.2 0.0
17/08:30pm 24.6 28.6 22.7 89 1.3 ESE 6 9 3 5 1015.0 1014.9 0.0
17/08:00pm 24.5 28.0 22.8 90 1.1 ESE 9 13 5 7 1014.8 1014.7 0.0
17/07:30pm 24.9 28.1 23.0 89 1.3 ESE 11 15 6 8 1014.4 1014.3 0.0
17/07:00pm 24.4 27.6 22.3 88 1.4 ESE 9 11 5 6 1014.0 1013.9 0.0
17/06:30pm 24.5 27.4 21.8 85 1.8 ESE 9 11 5 6 1013.8 1013.7 0.0
17/06:00pm 24.9 27.6 21.4 81 2.3 E 9 11 5 6 1013.5 1013.4 0.0
17/05:30pm 25.7 28.2 21.8 79 2.6 ENE 11 13 6 7 1013.2 1013.1 0.0
17/05:00pm 26.6 29.2 22.0 76 3.1 ENE 11 13 6 7 1012.9 1012.8 0.0
17/04:30pm 26.9 29.3 21.6 72 3.5 E 11 13 6 7 1012.6 1012.5 0.0
17/04:00pm 28.2 31.1 21.7 68 4.4 E 9 15 5 8 1012.3 1012.2 0.0
17/03:30pm 28.0 30.7 21.3 67 4.5 SE 9 15 5 8 1012.1 1012.0 0.0
17/03:00pm 28.3 31.0 22.1 69 4.2 ESE 11 15 6 8 1012.2 1012.1 0.0
17/02:30pm 27.8 29.7 21.3 67 4.3 SE 13 17 7 9 1012.2 1012.1 0.0
17/02:00pm 28.4 31.1 21.4 66 4.7 SE 9 13 5 7 1012.6 1012.5 0.0
17/01:30pm 28.5 31.4 21.8 67 4.5 SE 9 11 5 6 1012.9 1012.8 0.0
17/01:00pm 28.3 30.7 20.8 63 5.0 SSE 9 11 5 6 1013.4 1013.3 0.0
17/12:30pm 28.1 31.0 21.1 65 4.6 SSE 7 9 4 5 1013.9 1013.8 0.0
17/12:00pm 27.7 30.0 19.8 62 5.1 SSE 7 9 4 5 1014.1 1014.0 0.0
17/11:30am 27.4 30.5 21.4 70 4.0 SSE 7 9 4 5 1014.4 1014.3 0.0
17/11:00am 27.7 31.2 22.2 72 3.7 S 7 9 4 5 1014.8 1014.7 0.0
17/10:30am 26.6 29.7 21.4 73 3.5 SSW 7 11 4 6 1015.2 1015.1 0.0
17/10:00am 25.8 28.6 21.5 77 2.9 SSW 9 13 5 7 1015.4 1015.3 0.0
17/09:30am 25.2 27.1 20.5 75 3.1 SW 11 13 6 7 1015.4 1015.3 0.0
17/09:00am 24.7 26.1 20.4 77 2.8 SW 13 15 7 8 1015.2 1015.1 0.0
17/08:30am 24.4 25.0 20.3 78 2.7 SW 17 19 9 10 1015.0 1014.9 0.0
17/08:00am 24.3 25.5 20.6 80 2.4 SW 15 17 8 9 1014.7 1014.6 0.0
17/07:30am 24.2 26.2 20.7 81 2.3 SW 11 13 6 7 1014.4 1014.3 0.0
17/07:00am 23.9 26.3 22.2 90 1.1 SW 13 15 7 8 1014.0 1013.9 0.0
17/06:30am 23.6 26.2 21.9 90 1.1 W 11 13 6 7 1013.6 1013.5 0.0
17/06:00am 23.6 26.6 21.9 90 1.1 W 9 13 5 7 1013.1 1013.0 0.0
17/05:30am 23.9 26.7 21.6 87 1.5 WSW 9 11 5 6 1012.9 1012.8 0.0

Other formats

Comma delimited format used in spreadsheet applications
http://www.bom.gov.au/fwo/IDQ60801/IDQ60801.94285.axf

JavaScript Object Notation format (JSON) in row-major order
http://www.bom.gov.au/fwo/IDQ60801/IDQ60801.94285.json

Data quality

Most of these data are generated automatically and are frequently updated. Quality checks on data are not normally performed. It is possible for incorrect values to appear. Refer to information at About Latest Weather Observations and please check the disclaimer before using these data.